Time;durP1;ratioP1;P1;durP2;ratioP2;P2;SDS_P1;SDS_P2;PMS_P1;PMS_P2;Temp;Humidity;BMP_temperature;BMP_pressure;BME280_temperature;BME280_humidity;BME280_pressure;Samples;Min_cycle;Max_cycle;Signal;HPM_P1;HPM_P2
2023/10/07 00:00:32;;;;;;;0.50;0.50;;;;;;;12.21;64.75;97669.81;29395;242;63005;-90
2023/10/07 00:01:07;;;;;;;0.40;0.40;;;;;;;12.20;64.15;97659.19;29394;199;64013;-89
2023/10/07 00:01:40;;;;;;;0.40;0.40;;;;;;;12.19;63.83;97665.75;29395;223;63005;-87
2023/10/07 00:02:14;;;;;;;0.50;0.50;;;;;;;12.19;63.58;97665.75;29395;219;63009;-88
2023/10/07 00:02:45;;;;;;;0.50;0.50;;;;;;;12.19;63.98;97661.13;29395;225;63005;-88
2023/10/07 00:03:19;;;;;;;0.50;0.50;;;;;;;12.20;63.93;97667.38;29395;243;63009;-88
2023/10/07 00:03:58;;;;;;;0.45;0.45;;;;;;;12.22;64.55;97670.63;29395;222;63004;-88
2023/10/07 00:04:30;;;;;;;0.40;0.40;;;;;;;12.23;64.64;97666.81;29395;202;63009;-87
2023/10/07 00:05:04;;;;;;;0.50;0.50;;;;;;;12.24;64.82;97665.69;29395;204;63004;-87
2023/10/07 00:05:38;;;;;;;0.50;0.50;;;;;;;12.24;64.67;97665.69;29395;212;63008;-88
2023/10/07 00:06:11;;;;;;;0.50;0.50;;;;;;;12.24;64.39;97662.97;29394;197;64009;-90
2023/10/07 00:06:45;;;;;;;0.50;0.50;;;;;;;12.23;64.18;97669.53;29395;205;63009;-88
2023/10/07 00:07:17;;;;;;;0.50;0.50;;;;;;;12.21;62.65;97656.19;29395;203;63005;-89
2023/10/07 00:07:48;;;;;;;0.50;0.50;;;;;;;12.20;62.93;97657.28;29395;202;63009;-88
2023/10/07 00:08:20;;;;;;;0.50;0.50;;;;;;;12.22;63.72;97655.09;29395;222;63005;-89
2023/10/07 00:08:51;;;;;;;0.50;0.50;;;;;;;12.24;63.75;97658.34;29395;200;63009;-88
2023/10/07 00:09:22;;;;;;;0.50;0.50;;;;;;;12.26;64.08;97658.88;29395;246;63005;-87
2023/10/07 00:09:55;;;;;;;0.40;0.40;;;;;;;12.27;63.70;97651.53;29395;209;63009;-89
2023/10/07 00:10:29;;;;;;;0.50;0.50;;;;;;;12.26;63.96;97656.16;29395;218;63004;-88
2023/10/07 00:11:01;;;;;;;0.50;0.50;;;;;;;12.29;64.06;97660.22;29395;213;63009;-89
2023/10/07 00:11:36;;;;;;;0.50;0.50;;;;;;;12.27;64.07;97655.06;29394;203;64009;-89
2023/10/07 00:12:16;;;;;;;0.40;0.40;;;;;;;12.28;64.54;97658.59;29394;251;64013;-89
2023/10/07 00:12:48;;;;;;;0.50;0.50;;;;;;;12.28;64.92;97664.03;29417;212;63004;-89
2023/10/07 00:13:23;;;;;;;0.50;0.50;;;;;;;12.28;64.92;97661.31;29395;212;63009;-88
2023/10/07 00:13:55;;;;;;;0.50;0.50;;;;;;;12.28;64.86;97658.59;29395;206;63005;-88
2023/10/07 00:14:30;;;;;;;0.40;0.40;;;;;;;12.26;64.25;97664.31;29395;205;63009;-89
2023/10/07 00:15:04;;;;;;;0.50;0.50;;;;;;;12.26;64.75;97660.78;29395;202;63009;-90
2023/10/07 00:15:43;;;;;;;0.50;0.50;;;;;;;12.27;64.74;97674.13;29395;245;63009;-89
2023/10/07 00:16:18;;;;;;;0.50;0.50;;;;;;;12.27;64.56;97667.84;29394;226;64009;-87
2023/10/07 00:16:50;;;;;;;0.50;0.50;;;;;;;12.27;64.84;97665.94;29395;197;63009;-88
2023/10/07 00:17:22;;;;;;;0.50;0.50;;;;;;;12.27;65.04;97663.22;29394;207;64009;-89
2023/10/07 00:17:56;;;;;;;0.40;0.40;;;;;;;12.28;64.83;97669.47;29395;292;63009;-88
2023/10/07 00:18:28;;;;;;;0.50;0.50;;;;;;;12.29;64.96;97665.66;29394;222;64009;-88
2023/10/07 00:19:00;;;;;;;0.50;0.50;;;;;;;12.29;64.82;97662.94;29395;202;63009;-87
2023/10/07 00:19:33;;;;;;;0.50;0.50;;;;;;;12.27;64.11;97659.69;29395;222;63004;-89
2023/10/07 00:20:09;;;;;;;0.40;0.40;;;;;;;12.29;64.47;97665.66;29395;249;63009;-88
2023/10/07 00:20:48;;;;;;;0.50;0.50;;;;;;;12.29;64.58;97671.09;29395;196;63004;-89
2023/10/07 00:22:19;;;;;;;0.50;0.50;;;;;;;12.29;65.32;97665.66;29395;241;63005;-87
2023/10/07 00:22:54;;;;;;;0.50;0.50;;;;;;;12.30;65.36;97667.28;29395;240;63009;-89
2023/10/07 00:23:27;;;;;;;0.50;0.50;;;;;;;12.29;64.97;97660.22;29395;197;63005;-88
2023/10/07 00:24:01;;;;;;;0.50;0.50;;;;;;;12.29;64.98;97660.22;29394;301;64013;-88
2023/10/07 00:24:37;;;;;;;0.50;0.50;;;;;;;12.29;65.39;97660.22;29395;202;63005;-88
2023/10/07 00:25:12;;;;;;;0.50;0.50;;;;;;;12.27;64.82;97663.22;29395;212;63018;-89
2023/10/07 00:25:49;;;;;;;0.50;0.50;;;;;;;12.27;65.39;97663.22;29395;214;63004;-89
2023/10/07 00:26:22;;;;;;;0.50;0.50;;;;;;;12.22;64.90;97654.28;29395;290;63009;-88
2023/10/07 00:26:53;;;;;;;0.50;0.50;;;;;;;12.24;65.33;97658.34;29395;231;63004;-89
2023/10/07 00:27:29;;;;;;;0.50;0.50;;;;;;;12.24;64.82;97657.53;29395;256;63009;-88
2023/10/07 00:28:06;;;;;;;0.50;0.50;;;;;;;12.24;64.85;97657.53;29395;314;63004;-89
2023/10/07 00:28:44;;;;;;;0.50;0.50;;;;;;;12.24;65.20;97658.34;29395;203;63008;-87
2023/10/07 00:29:21;;;;;;;0.40;0.40;;;;;;;12.26;65.48;97660.78;29394;268;64009;-88
2023/10/07 00:29:54;;;;;;;0.50;0.50;;;;;;;12.25;64.92;97654.53;29395;219;63009;-88
2023/10/07 00:30:28;;;;;;;0.50;0.50;;;;;;;12.25;65.09;97659.16;29395;242;63005;-87
2023/10/07 00:31:05;;;;;;;0.50;0.50;;;;;;;12.24;64.90;97657.53;29395;234;63009;-88
2023/10/07 00:31:40;;;;;;;0.50;0.50;;;;;;;12.24;65.78;97668.44;29395;225;63010;-89
2023/10/07 00:32:11;;;;;;;0.50;0.50;;;;;;;12.23;65.69;97659.44;29395;212;63009;-88
2023/10/07 00:32:45;;;;;;;0.45;0.45;;;;;;;12.22;65.71;97660.53;29395;229;63005;-88
2023/10/07 00:33:22;;;;;;;0.50;0.50;;;;;;;12.22;65.39;97666.00;29395;220;63009;-88
2023/10/07 00:34:05;;;;;;;0.50;0.50;;;;;;;12.21;65.32;97669.00;29395;246;63004;-89
2023/10/07 00:34:39;;;;;;;0.50;0.50;;;;;;;12.18;65.94;97667.66;29394;198;64013;-89
2023/10/07 00:35:12;;;;;;;0.50;0.50;;;;;;;12.18;65.75;97669.56;29395;286;63004;-89
2023/10/07 00:35:49;;;;;;;0.40;0.40;;;;;;;12.17;66.18;97668.75;29394;223;64013;-90
2023/10/07 00:36:41;;;;;;;0.50;0.50;;;;;;;12.16;66.11;97666.31;29395;197;63004;-90
2023/10/07 00:37:15;;;;;;;0.50;0.50;;;;;;;12.15;66.11;97667.41;29395;235;63009;-87
2023/10/07 00:37:48;;;;;;;0.50;0.50;;;;;;;12.14;65.48;97663.06;29395;209;63005;-88
2023/10/07 00:38:23;;;;;;;0.50;0.50;;;;;;;12.12;65.75;97657.12;29395;197;63009;-88
2023/10/07 00:38:55;;;;;;;0.50;0.50;;;;;;;12.12;66.20;97659.84;29395;216;63005;-88
2023/10/07 00:39:31;;;;;;;0.50;0.50;;;;;;;12.12;66.03;97665.28;29395;262;63009;-88
2023/10/07 00:40:25;;;;;;;0.50;0.50;;;;;;;12.10;65.91;97662.84;29395;308;63015;-89
2023/10/07 00:41:03;;;;;;;0.50;0.50;;;;;;;12.10;66.18;97665.56;29394;202;64013;-90
2023/10/07 00:41:45;;;;;;;0.50;0.50;;;;;;;12.08;66.55;97663.13;29395;199;63004;-88
2023/10/07 00:42:19;;;;;;;0.50;0.50;;;;;;;12.07;66.16;97664.22;29395;218;63009;-88
2023/10/07 00:42:52;;;;;;;0.50;0.50;;;;;;;12.08;66.56;97665.03;29395;266;63004;-88
2023/10/07 00:43:27;;;;;;;0.40;0.40;;;;;;;12.06;66.76;97664.50;29395;272;63008;-88
2023/10/07 00:44:15;;;;;;;0.40;0.40;;;;;;;12.06;66.31;97665.31;29395;202;63005;-89
2023/10/07 00:44:47;;;;;;;0.50;0.50;;;;;;;12.05;66.34;97657.44;29395;222;63009;-89
2023/10/07 00:45:20;;;;;;;0.40;0.40;;;;;;;12.03;65.51;97663.16;29395;216;63016;-88
2023/10/07 00:46:55;;;;;;;0.50;0.50;;;;;;;12.01;65.54;97659.91;29394;227;64009;-88
2023/10/07 00:47:29;;;;;;;0.50;0.50;;;;;;;12.01;66.27;97662.63;29395;213;63009;-89
2023/10/07 00:48:04;;;;;;;0.50;0.50;;;;;;;12.03;66.30;97662.34;29395;197;63018;-88
2023/10/07 00:48:52;;;;;;;0.50;0.50;;;;;;;12.03;66.40;97663.16;29395;226;63009;-87
2023/10/07 00:49:27;;;;;;;0.50;0.50;;;;;;;12.04;66.05;97664.78;29395;218;63017;-88
2023/10/07 00:50:00;;;;;;;0.50;0.50;;;;;;;12.04;66.12;97659.34;29395;246;63008;-88
2023/10/07 00:50:34;;;;;;;0.50;0.50;;;;;;;12.04;65.99;97658.53;29395;198;63004;-88
2023/10/07 00:51:11;;;;;;;0.50;0.50;;;;;;;12.04;65.99;97658.53;29395;299;63009;-88
2023/10/07 00:51:46;;;;;;;0.50;0.50;;;;;;;12.03;66.24;97663.16;29395;258;63001;-89
2023/10/07 00:53:24;;;;;;;0.50;0.50;;;;;;;12.02;65.87;97660.72;29395;238;63005;-88
2023/10/07 00:54:18;;;;;;;0.50;0.50;;;;;;;12.01;66.00;97659.91;29417;240;63009;-88
2023/10/07 00:54:57;;;;;;;0.50;0.50;;;;;;;12.01;66.17;97654.47;29395;221;63004;-87
2023/10/07 00:55:34;;;;;;;0.50;0.50;;;;;;;12.00;66.27;97655.56;29395;238;63009;-88
2023/10/07 00:56:06;;;;;;;0.50;0.50;;;;;;;12.00;66.08;97652.84;29395;234;63004;-87
2023/10/07 00:56:42;;;;;;;0.50;0.50;;;;;;;12.01;66.14;97659.91;29395;227;63009;-87
2023/10/07 00:57:24;;;;;;;0.50;0.50;;;;;;;12.01;65.66;97654.47;29395;271;63014;-87
2023/10/07 00:58:13;;;;;;;0.50;0.50;;;;;;;12.01;65.43;97659.91;29394;227;64013;-87
2023/10/07 00:58:46;;;;;;;0.50;0.50;;;;;;;12.01;65.45;97650.94;29395;269;63018;-88
2023/10/07 00:59:24;;;;;;;0.50;0.50;;;;;;;12.00;65.40;97650.12;29395;252;63009;-88
2023/10/07 00:59:58;;;;;;;0.50;0.50;;;;;;;12.01;65.58;97659.09;29395;205;63005;-87
2023/10/07 01:00:48;;;;;;;0.50;0.50;;;;;;;11.99;65.75;97650.41;29395;287;63009;-89
2023/10/07 01:01:20;;;;;;;0.50;0.50;;;;;;;11.97;65.83;97642.53;29395;280;63016;-89
2023/10/07 01:01:57;;;;;;;0.50;0.50;;;;;;;11.98;65.90;97643.34;29395;197;63009;-88
2023/10/07 01:02:31;;;;;;;0.50;0.50;;;;;;;11.99;65.66;97644.97;29395;253;63004;-89
2023/10/07 01:03:17;;;;;;;0.50;0.50;;;;;;;11.98;65.44;97648.78;29394;219;64013;-88
2023/10/07 01:03:49;;;;;;;0.50;0.50;;;;;;;11.96;65.28;97640.09;29395;205;63004;-88
2023/10/07 01:04:21;;;;;;;0.50;0.50;;;;;;;11.94;65.42;97643.09;29395;215;63009;-88
2023/10/07 01:04:53;;;;;;;0.50;0.50;;;;;;;11.95;65.55;97644.72;29395;199;63018;-88
2023/10/07 01:05:27;;;;;;;0.50;0.50;;;;;;;11.95;65.91;97641.19;29395;215;63008;-88
2023/10/07 01:07:02;;;;;;;0.50;0.50;;;;;;;11.90;66.00;97636.59;29395;233;63015;-87
2023/10/07 01:07:34;;;;;;;0.50;0.50;;;;;;;11.91;65.96;97638.22;29395;218;63017;-89
2023/10/07 01:08:07;;;;;;;0.50;0.50;;;;;;;11.91;65.98;97638.22;29394;222;64013;-87
2023/10/07 01:08:44;;;;;;;0.43;0.43;;;;;;;11.92;66.39;97639.84;29395;216;63005;-89
2023/10/07 01:09:22;;;;;;;0.50;0.50;;;;;;;11.93;66.69;97636.03;29395;196;63009;-88
2023/10/07 01:10:00;;;;;;;0.50;0.50;;;;;;;11.93;67.10;97636.03;29395;262;63005;-88
2023/10/07 01:10:37;;;;;;;0.50;0.50;;;;;;;11.93;67.10;97641.47;29395;241;63009;-87
2023/10/07 01:12:08;;;;;;;0.50;0.50;;;;;;;11.94;66.87;97634.94;29395;198;63009;-88
2023/10/07 01:12:44;;;;;;;0.50;0.50;;;;;;;11.94;66.91;97634.94;29395;202;63004;-88
2023/10/07 01:13:29;;;;;;;0.50;0.50;;;;;;;11.95;66.83;97638.47;29394;233;64013;-88
2023/10/07 01:14:00;;;;;;;0.50;0.50;;;;;;;11.95;67.26;97638.47;29395;217;63005;-89
2023/10/07 01:14:35;;;;;;;0.50;0.50;;;;;;;11.94;67.06;97643.09;29395;222;63009;-89
2023/10/07 01:16:14;;;;;;;0.50;0.50;;;;;;;11.97;67.42;97639.81;29395;221;63009;-90
2023/10/07 01:16:46;;;;;;;0.50;0.50;;;;;;;11.96;67.69;97640.09;29395;213;63009;-89
2023/10/07 01:17:23;;;;;;;0.45;0.45;;;;;;;11.94;67.73;97643.09;29395;234;63009;-90
2023/10/07 01:18:04;;;;;;;0.50;0.50;;;;;;;11.95;68.11;97644.72;29395;227;63004;-87
2023/10/07 01:18:38;;;;;;;0.50;0.50;;;;;;;11.95;67.87;97639.28;29394;204;64013;-87
2023/10/07 01:19:28;;;;;;;0.50;0.50;;;;;;;11.96;67.63;97634.66;29394;228;64009;-87
2023/10/07 01:20:07;;;;;;;0.50;0.50;;;;;;;11.94;67.72;97632.22;29395;244;63008;-89
2023/10/07 01:21:00;;;;;;;0.50;0.50;;;;;;;11.93;68.26;97630.59;29395;210;63004;-88
2023/10/07 01:21:33;;;;;;;0.50;0.50;;;;;;;11.92;68.20;97634.41;29417;274;63009;-89
2023/10/07 01:22:12;;;;;;;0.40;0.40;;;;;;;11.92;68.46;97628.97;29395;219;63005;-88
2023/10/07 01:23:02;;;;;;;0.50;0.50;;;;;;;11.91;68.61;97631.97;29395;203;63009;-88
2023/10/07 01:23:35;;;;;;;0.50;0.50;;;;;;;11.89;68.08;97628.72;29395;291;63005;-88
2023/10/07 01:24:12;;;;;;;0.50;0.50;;;;;;;11.88;68.10;97627.09;29395;262;63009;-87
2023/10/07 01:24:49;;;;;;;0.50;0.50;;;;;;;11.89;68.28;97631.44;29394;224;64009;-89
2023/10/07 01:25:20;;;;;;;0.50;0.50;;;;;;;11.89;68.17;97626.00;29395;259;63009;-89
2023/10/07 01:25:52;;;;;;;0.50;0.50;;;;;;;11.87;68.24;97620.84;29395;198;63000;-88
2023/10/07 01:26:29;;;;;;;0.50;0.50;;;;;;;11.88;68.05;97616.19;29395;236;63009;-89
2023/10/07 01:27:17;;;;;;;0.50;0.50;;;;;;;11.86;68.16;97624.66;29395;202;63004;-88
2023/10/07 01:27:53;;;;;;;0.50;0.50;;;;;;;11.87;68.32;97620.84;29395;263;63008;-90
2023/10/07 01:28:26;;;;;;;0.50;0.50;;;;;;;11.85;67.75;97623.03;29395;220;63005;-88
2023/10/07 01:29:12;;;;;;;0.50;0.50;;;;;;;11.85;68.03;97623.03;29395;242;63009;-88
2023/10/07 01:29:49;;;;;;;0.50;0.50;;;;;;;11.86;68.06;97618.41;29395;228;63005;-88
2023/10/07 01:30:29;;;;;;;0.50;0.50;;;;;;;11.84;67.99;97615.97;29394;207;64013;-87
2023/10/07 01:31:18;;;;;;;0.50;0.50;;;;;;;11.85;68.13;97622.22;29395;199;63005;-88
2023/10/07 01:32:12;;;;;;;0.50;0.50;;;;;;;11.85;68.17;97619.50;29394;242;64013;-89
2023/10/07 01:32:57;;;;;;;0.50;0.50;;;;;;;11.83;68.04;97622.50;29395;231;63012;-87
2023/10/07 01:33:46;;;;;;;0.50;0.50;;;;;;;11.82;68.13;97618.16;29395;196;63009;-88
2023/10/07 01:34:19;;;;;;;0.50;0.50;;;;;;;11.80;68.18;97620.34;29395;268;63017;-88
2023/10/07 01:34:52;;;;;;;0.50;0.50;;;;;;;11.79;68.25;97613.28;29395;218;63024;-88
2023/10/07 01:35:31;;;;;;;0.40;0.40;;;;;;;11.79;68.32;97616.00;29395;234;63004;-88
2023/10/07 01:36:16;;;;;;;0.50;0.50;;;;;;;11.79;68.61;97623.34;29395;275;63009;-88
2023/10/07 01:36:51;;;;;;;0.50;0.50;;;;;;;11.76;67.98;97613.84;29394;211;64009;-89
2023/10/07 01:37:22;;;;;;;0.50;0.50;;;;;;;11.77;68.50;97611.97;29395;243;63009;-88
2023/10/07 01:38:07;;;;;;;0.50;0.50;;;;;;;11.77;68.44;97609.25;29395;197;63005;-88
2023/10/07 01:38:44;;;;;;;0.50;0.50;;;;;;;11.76;68.42;97608.41;29395;222;63027;-88
2023/10/07 01:39:17;;;;;;;0.50;0.50;;;;;;;11.75;68.59;97612.22;29395;244;63012;-87
2023/10/07 01:39:54;;;;;;;0.50;0.50;;;;;;;11.74;68.62;97605.16;29395;223;63009;-89
2023/10/07 01:40:34;;;;;;;0.50;0.50;;;;;;;11.74;68.91;97610.59;29395;251;63004;-88
2023/10/07 01:41:09;;;;;;;0.50;0.50;;;;;;;11.74;68.64;97610.59;29417;272;63009;-87
2023/10/07 01:41:45;;;;;;;0.50;0.50;;;;;;;11.73;68.53;97604.34;29395;254;63004;-88
2023/10/07 01:42:36;;;;;;;0.50;0.50;;;;;;;11.74;68.85;97610.59;29394;202;64013;-89
2023/10/07 01:43:08;;;;;;;0.50;0.50;;;;;;;11.73;68.60;97608.97;29395;196;63004;-88
2023/10/07 01:43:40;;;;;;;0.50;0.50;;;;;;;11.72;68.33;97608.16;29395;211;63009;-89
2023/10/07 01:44:12;;;;;;;0.47;0.47;;;;;;;11.72;68.49;97608.16;29395;228;63009;-86
2023/10/07 01:44:43;;;;;;;0.50;0.50;;;;;;;11.71;68.64;97605.72;29395;197;63009;-87
2023/10/07 01:45:22;;;;;;;0.50;0.50;;;;;;;11.70;68.87;97606.81;29395;217;63005;-89
2023/10/07 01:45:54;;;;;;;0.50;0.50;;;;;;;11.69;68.77;97610.63;29395;210;63009;-88
2023/10/07 01:46:28;;;;;;;0.50;0.50;;;;;;;11.67;68.83;97604.66;29395;207;63005;-88
2023/10/07 01:46:59;;;;;;;0.50;0.50;;;;;;;11.64;68.60;97605.22;29395;196;63009;-90
2023/10/07 01:47:31;;;;;;;0.50;0.50;;;;;;;11.63;69.40;97609.00;29394;247;64009;-88
2023/10/07 01:48:07;;;;;;;0.50;0.50;;;;;;;11.63;69.86;97609.00;29395;232;63009;-87
2023/10/07 01:48:38;;;;;;;0.50;0.50;;;;;;;11.61;69.22;97612.00;29395;199;63004;-88
2023/10/07 01:49:17;;;;;;;0.40;0.40;;;;;;;11.59;69.38;97613.38;29394;231;64009;-88
2023/10/07 01:49:53;;;;;;;0.50;0.50;;;;;;;11.56;69.48;97613.94;29395;220;63004;-88
2023/10/07 01:50:25;;;;;;;0.50;0.50;;;;;;;11.54;69.72;97616.94;29395;211;63008;-89
2023/10/07 01:50:57;;;;;;;0.50;0.50;;;;;;;11.53;69.54;97609.88;29395;205;63004;-89
2023/10/07 01:51:30;;;;;;;0.50;0.50;;;;;;;11.51;69.70;97617.50;29395;197;63025;-88
2023/10/07 01:52:05;;;;;;;0.50;0.50;;;;;;;11.49;69.60;97618.88;29395;236;63005;-88
2023/10/07 01:52:39;;;;;;;0.50;0.50;;;;;;;11.46;70.07;97619.44;29394;207;64013;-88
2023/10/07 01:53:14;;;;;;;0.50;0.50;;;;;;;11.45;70.06;97617.81;29395;228;63005;-90
2023/10/07 01:53:46;;;;;;;0.50;0.50;;;;;;;11.44;70.22;97622.44;29395;216;63009;-88
2023/10/07 01:54:21;;;;;;;0.50;0.50;;;;;;;11.43;70.27;97627.06;29395;209;63005;-89
2023/10/07 01:54:58;;;;;;;0.50;0.50;;;;;;;11.43;70.69;97626.28;29395;221;63009;-88
2023/10/07 01:55:47;;;;;;;0.50;0.50;;;;;;;11.41;70.43;97623.03;29395;226;63008;-88
2023/10/07 01:56:19;;;;;;;0.50;0.50;;;;;;;11.39;70.38;97619.78;29395;212;63009;-88
2023/10/07 01:56:53;;;;;;;0.50;0.50;;;;;;;11.38;70.51;97624.41;29395;224;63004;-88
2023/10/07 01:57:25;;;;;;;0.50;0.50;;;;;;;11.37;70.53;97620.06;29394;228;64013;-88
2023/10/07 01:57:57;;;;;;;0.50;0.50;;;;;;;11.36;70.46;97615.72;29395;224;63005;-88
2023/10/07 01:58:30;;;;;;;0.50;0.50;;;;;;;11.36;70.96;97612.19;29395;238;63009;-89
2023/10/07 01:59:17;;;;;;;0.50;0.50;;;;;;;11.35;70.65;97616.78;29395;245;63005;-88
2023/10/07 01:59:52;;;;;;;0.43;0.43;;;;;;;11.36;70.71;97614.91;29395;233;63009;-89
2023/10/07 02:00:38;;;;;;;0.50;0.50;;;;;;;11.35;70.71;97614.06;29395;226;63005;-89
2023/10/07 02:01:10;;;;;;;0.50;0.50;;;;;;;11.37;70.97;97611.09;29395;221;63009;-89
2023/10/07 02:01:54;;;;;;;0.50;0.50;;;;;;;11.37;70.32;97617.34;29395;212;63005;-89
2023/10/07 02:02:26;;;;;;;0.50;0.50;;;;;;;11.36;70.39;97618.44;29394;225;64013;-88
2023/10/07 02:03:01;;;;;;;0.50;0.50;;;;;;;11.34;70.14;97617.88;29395;226;63004;-89
2023/10/07 02:03:35;;;;;;;0.50;0.50;;;;;;;11.33;70.20;97624.41;29395;220;63009;-87
2023/10/07 02:04:26;;;;;;;0.50;0.50;;;;;;;11.32;70.20;97620.06;29395;205;63004;-88
2023/10/07 02:05:02;;;;;;;0.50;0.50;;;;;;;11.29;70.26;97620.63;29395;330;63008;-90
2023/10/07 02:05:41;;;;;;;0.50;0.50;;;;;;;11.29;70.15;97626.06;29395;210;63005;-87
2023/10/07 02:06:18;;;;;;;0.50;0.50;;;;;;;11.28;70.37;97621.72;29395;222;63009;-87
2023/10/07 02:06:51;;;;;;;0.50;0.50;;;;;;;11.26;70.30;97626.62;29395;222;63005;-85
2023/10/07 02:07:24;;;;;;;0.50;0.50;;;;;;;11.25;70.54;97625.00;29395;224;63009;-86
2023/10/07 02:07:55;;;;;;;0.50;0.50;;;;;;;11.25;70.58;97635.84;29394;237;64009;-87
2023/10/07 02:08:29;;;;;;;0.50;0.50;;;;;;;11.24;70.60;97627.97;29395;274;63009;-87
2023/10/07 02:09:05;;;;;;;0.50;0.50;;;;;;;11.22;70.50;97625.53;29394;236;64009;-88
2023/10/07 02:09:42;;;;;;;0.50;0.50;;;;;;;11.22;70.83;97620.12;29394;236;64013;-89
2023/10/07 02:10:23;;;;;;;0.50;0.50;;;;;;;11.24;70.72;97628.81;29395;247;63004;-87
2023/10/07 02:10:59;;;;;;;;;;;;;;;11.25;70.47;97624.19;29996;983;6004;-88
2023/10/07 02:11:31;;;;;;;0.50;0.50;;;;;;;11.26;70.01;97629.34;29401;220;63009;-87
2023/10/07 02:12:11;;;;;;;0.52;0.52;;;;;;;11.27;69.97;97625.53;29395;218;63015;-88
2023/10/07 02:12:45;;;;;;;0.50;0.50;;;;;;;11.28;69.92;97624.44;29395;336;63008;-88
2023/10/07 02:13:21;;;;;;;0.50;0.50;;;;;;;11.28;70.10;97629.87;29395;264;63005;-88
2023/10/07 02:13:55;;;;;;;0.50;0.50;;;;;;;11.28;69.87;97624.44;29394;333;64014;-87
2023/10/07 02:14:28;;;;;;;0.50;0.50;;;;;;;11.28;69.65;97627.16;29395;209;63005;-88
2023/10/07 02:15:08;;;;;;;0.60;0.60;;;;;;;11.28;69.58;97629.06;29395;213;63009;-87
2023/10/07 02:15:42;;;;;;;0.50;0.50;;;;;;;11.28;69.96;97629.87;29417;232;63005;-88
2023/10/07 02:16:16;;;;;;;0.50;0.50;;;;;;;11.28;69.52;97627.16;29395;385;63009;-88
2023/10/07 02:16:49;;;;;;;0.50;0.50;;;;;;;11.28;69.26;97634.50;29395;263;63014;-88
2023/10/07 02:17:25;;;;;;;0.50;0.50;;;;;;;11.26;69.26;97632.06;29395;196;63009;-87
2023/10/07 02:17:57;;;;;;;0.60;0.60;;;;;;;11.26;69.68;97634.75;29395;238;63004;-88
2023/10/07 02:18:29;;;;;;;0.50;0.50;;;;;;;11.26;69.79;97632.06;29394;198;64013;-87
2023/10/07 02:19:00;;;;;;;0.50;0.50;;;;;;;11.25;69.47;97625.00;29395;228;63004;-88
2023/10/07 02:19:34;;;;;;;0.50;0.50;;;;;;;11.25;69.69;97625.00;29395;281;63009;-87
2023/10/07 02:20:21;;;;;;;0.50;0.50;;;;;;;11.25;69.96;97619.56;29395;267;63004;-89
2023/10/07 02:21:06;;;;;;;0.50;0.50;;;;;;;11.25;68.85;97618.75;29395;224;63009;-88
2023/10/07 02:21:38;;;;;;;0.50;0.50;;;;;;;11.22;68.94;97620.12;29395;231;63005;-86
2023/10/07 02:22:20;;;;;;;0.50;0.50;;;;;;;11.22;68.79;97630.97;29395;244;63009;-87
2023/10/07 02:22:52;;;;;;;0.50;0.50;;;;;;;11.20;69.14;97622.28;29395;219;63005;-88
2023/10/07 02:23:37;;;;;;;0.50;0.50;;;;;;;11.22;69.19;97620.12;29395;204;63009;-87
2023/10/07 02:24:14;;;;;;;0.50;0.50;;;;;;;11.24;69.37;97623.37;29394;202;64009;-86
2023/10/07 02:24:45;;;;;;;0.50;0.50;;;;;;;11.24;69.43;97628.81;29395;204;63009;-87
2023/10/07 02:25:21;;;;;;;0.50;0.50;;;;;;;11.25;69.31;97624.19;29394;218;64009;-87
2023/10/07 02:25:57;;;;;;;0.50;0.50;;;;;;;11.26;69.19;97623.91;29395;239;63009;-87
2023/10/07 02:26:28;;;;;;;0.50;0.50;;;;;;;11.26;69.56;97629.34;29395;198;63007;-88
2023/10/07 02:27:06;;;;;;;0.50;0.50;;;;;;;11.28;69.21;97627.16;29395;204;63009;-87
2023/10/07 02:27:42;;;;;;;0.50;0.50;;;;;;;11.29;69.22;97626.06;29395;287;63004;-87
2023/10/07 02:28:14;;;;;;;0.50;0.50;;;;;;;11.29;69.15;97631.50;29395;218;63009;-88
2023/10/07 02:28:52;;;;;;;0.50;0.50;;;;;;;11.31;69.45;97631.22;29395;225;63005;-87
2023/10/07 02:29:24;;;;;;;0.50;0.50;;;;;;;11.30;69.29;97633.13;29395;219;63009;-88
2023/10/07 02:29:57;;;;;;;0.50;0.50;;;;;;;11.29;68.73;97630.69;29395;198;63005;-87
2023/10/07 02:30:29;;;;;;;0.50;0.50;;;;;;;11.27;68.82;97636.41;29394;225;64013;-88
2023/10/07 02:31:08;;;;;;;0.50;0.50;;;;;;;11.26;68.88;97632.06;29395;214;63005;-88
2023/10/07 02:31:43;;;;;;;0.50;0.50;;;;;;;11.26;69.26;97625.81;29395;225;63009;-87
2023/10/07 02:32:17;;;;;;;0.50;0.50;;;;;;;11.25;69.47;97635.03;29395;209;63004;-88
2023/10/07 02:32:48;;;;;;;0.50;0.50;;;;;;;11.24;69.01;97634.22;29395;222;63009;-88
2023/10/07 02:33:21;;;;;;;0.50;0.50;;;;;;;11.23;69.33;97637.22;29395;203;63004;-88
2023/10/07 02:33:57;;;;;;;0.50;0.50;;;;;;;11.22;68.98;97630.97;29395;198;63023;-87
2023/10/07 02:34:33;;;;;;;0.50;0.50;;;;;;;11.24;69.22;97634.22;29395;217;63004;-88
2023/10/07 02:35:08;;;;;;;0.50;0.50;;;;;;;11.25;68.96;97637.75;29395;237;63008;-87
2023/10/07 02:35:46;;;;;;;0.50;0.50;;;;;;;11.22;68.88;97630.97;29394;203;64009;-86
2023/10/07 02:36:28;;;;;;;0.50;0.50;;;;;;;11.22;69.00;97635.59;29395;210;63009;-87
2023/10/07 02:37:11;;;;;;;0.50;0.50;;;;;;;11.24;69.21;97634.22;29395;210;63013;-89
2023/10/07 02:37:49;;;;;;;0.50;0.50;;;;;;;11.22;69.57;97630.97;29395;198;63009;-87
2023/10/07 02:38:35;;;;;;;0.50;0.50;;;;;;;11.24;69.65;97634.22;29395;221;63005;-87
2023/10/07 02:39:19;;;;;;;0.50;0.50;;;;;;;11.25;69.55;97635.03;29395;197;63009;-87
2023/10/07 02:39:56;;;;;;;0.50;0.50;;;;;;;11.24;69.73;97634.22;29395;226;63004;-89
2023/10/07 02:40:36;;;;;;;0.50;0.50;;;;;;;11.25;69.46;97641.28;29395;231;63009;-87
2023/10/07 02:41:17;;;;;;;0.50;0.50;;;;;;;11.25;69.64;97633.13;29416;378;64009;-87
2023/10/07 02:41:56;;;;;;;0.50;0.50;;;;;;;11.25;69.62;97641.28;29395;213;63009;-88
2023/10/07 02:42:31;;;;;;;0.50;0.50;;;;;;;11.27;69.83;97643.72;29395;213;63004;-88
2023/10/07 02:43:10;;;;;;;0.50;0.50;;;;;;;11.26;69.27;97636.66;29394;203;64014;-87
2023/10/07 02:43:43;;;;;;;0.50;0.50;;;;;;;11.25;69.54;97635.03;29395;277;63005;-87
2023/10/07 02:44:17;;;;;;;0.50;0.50;;;;;;;11.25;69.42;97641.28;29395;216;63009;-89
2023/10/07 02:45:59;;;;;;;0.50;0.50;;;;;;;11.25;69.12;97641.28;29395;203;63009;-88
2023/10/07 02:46:33;;;;;;;0.50;0.50;;;;;;;11.25;69.26;97641.28;29395;205;63017;-88
2023/10/07 02:47:11;;;;;;;0.50;0.50;;;;;;;11.26;68.96;97642.91;29395;273;63009;-88
2023/10/07 02:47:50;;;;;;;0.50;0.50;;;;;;;11.24;68.78;97649.72;29395;236;63004;-87
2023/10/07 02:48:21;;;;;;;0.50;0.50;;;;;;;11.21;68.99;97640.22;29394;279;64013;-88
2023/10/07 02:49:01;;;;;;;0.50;0.50;;;;;;;11.18;69.57;97651.63;29395;267;63004;-88
2023/10/07 02:51:28;;;;;;;0.50;0.50;;;;;;;10.95;70.90;97665.84;88180;218;64004;-92
2023/10/07 02:52:46;;;;;;;0.50;0.50;;;;;;;10.88;71.33;97659.91;29394;252;64009;-91
2023/10/07 02:54:15;;;;;;;0.50;0.50;;;;;;;10.89;70.79;97658.81;29395;267;63004;-92
2023/10/07 02:55:58;;;;;;;0.50;0.50;;;;;;;10.84;71.17;97661.53;29395;198;63004;-92
2023/10/07 02:56:44;;;;;;;0.50;0.50;;;;;;;10.82;70.96;97658.28;29395;218;63008;-92
2023/10/07 02:57:34;;;;;;;0.50;0.50;;;;;;;10.80;71.62;97660.44;29394;204;64009;-91
2023/10/07 02:59:12;;;;;;;;;;;;;;;;;;;;;
2023/10/07 03:04:10;;;;;;;0.60;0.60;;;;;;;10.63;72.05;97656.16;29421;214;64013;-93
2023/10/07 03:05:35;;;;;;;0.50;0.50;;;;;;;10.64;71.78;97662.41;29394;240;64009;-93
2023/10/07 03:07:30;;;;;;;0.50;0.50;;;;;;;10.66;71.01;97655.63;29417;252;63009;-92
2023/10/07 03:08:22;;;;;;;0.60;0.60;;;;;;;10.61;71.54;97658.34;29439;262;63009;-55
2023/10/07 03:09:00;;;;;;;0.50;0.50;;;;;;;10.61;71.93;97658.34;29395;365;63009;-55
2023/10/07 03:09:35;;;;;;;0.50;0.50;;;;;;;10.62;71.91;97649.09;29395;235;63004;-56
2023/10/07 03:10:18;;;;;;;0.50;0.50;;;;;;;10.63;71.25;97653.44;29394;269;64013;-56
2023/10/07 03:11:10;;;;;;;0.50;0.50;;;;;;;10.61;70.68;97647.47;29394;228;64009;-55
2023/10/07 03:11:48;;;;;;;0.50;0.50;;;;;;;10.60;70.56;97651.28;29417;228;63015;-56
2023/10/07 03:12:39;;;;;;;0.50;0.50;;;;;;;10.55;70.57;97651.28;29394;264;64009;-56
2023/10/07 03:13:15;;;;;;;0.50;0.50;;;;;;;10.55;70.58;97651.28;29394;197;64014;-55
2023/10/07 03:13:56;;;;;;;0.50;0.50;;;;;;;10.56;70.00;97644.78;29395;224;63014;-56
2023/10/07 03:14:28;;;;;;;1.83;1.80;;;;;;;10.57;69.73;97651.81;29417;206;63009;-55